sensor_id;sensor_type;location;lat;lon;timestamp;pressure;altitude;pressure_sealevel;temperature;humidity
5138;BME280;53959;53.626;11.410;2023-06-24T00:01:20;101676.56;;;16.10;78.31
5138;BME280;53959;53.626;11.410;2023-06-24T00:03:47;101672.25;;;16.05;78.44
5138;BME280;53959;53.626;11.410;2023-06-24T00:06:13;101690.22;;;16.02;78.76
5138;BME280;53959;53.626;11.410;2023-06-24T00:08:49;101686.59;;;16.03;78.77
5138;BME280;53959;53.626;11.410;2023-06-24T00:11:15;101682.41;;;15.95;78.64
5138;BME280;53959;53.626;11.410;2023-06-24T00:13:41;101689.44;;;15.99;78.76
5138;BME280;53959;53.626;11.410;2023-06-24T00:16:07;101691.09;;;16.03;78.87
5138;BME280;53959;53.626;11.410;2023-06-24T00:18:34;101700.09;;;16.00;78.58
5138;BME280;53959;53.626;11.410;2023-06-24T00:20:59;101692.00;;;16.02;78.62
5138;BME280;53959;53.626;11.410;2023-06-24T00:23:27;101698.38;;;15.98;79.06
5138;BME280;53959;53.626;11.410;2023-06-24T00:25:53;101695.59;;;16.01;78.96
5138;BME280;53959;53.626;11.410;2023-06-24T00:28:19;101699.94;;;16.05;79.09
5138;BME280;53959;53.626;11.410;2023-06-24T00:30:46;101699.41;;;15.94;79.27
5138;BME280;53959;53.626;11.410;2023-06-24T00:33:12;101708.56;;;15.87;79.79
5138;BME280;53959;53.626;11.410;2023-06-24T00:35:39;101716.50;;;15.90;79.70
5138;BME280;53959;53.626;11.410;2023-06-24T00:38:04;101718.91;;;15.99;79.25
5138;BME280;53959;53.626;11.410;2023-06-24T00:40:30;101727.66;;;15.76;79.57
5138;BME280;53959;53.626;11.410;2023-06-24T00:42:55;101715.88;;;15.82;79.81
5138;BME280;53959;53.626;11.410;2023-06-24T00:45:22;101728.31;;;15.83;79.54
5138;BME280;53959;53.626;11.410;2023-06-24T00:47:48;101725.53;;;15.87;79.59
5138;BME280;53959;53.626;11.410;2023-06-24T00:50:14;101723.66;;;15.89;79.55
5138;BME280;53959;53.626;11.410;2023-06-24T00:52:40;101719.09;;;15.93;79.29
5138;BME280;53959;53.626;11.410;2023-06-24T00:55:09;101719.09;;;15.93;79.15
5138;BME280;53959;53.626;11.410;2023-06-24T00:57:37;101717.34;;;15.92;79.10
5138;BME280;53959;53.626;11.410;2023-06-24T01:00:03;101724.63;;;15.87;78.90
5138;BME280;53959;53.626;11.410;2023-06-24T01:02:34;101721.81;;;15.91;78.60
5138;BME280;53959;53.626;11.410;2023-06-24T01:05:03;101720.19;;;15.87;78.09
5138;BME280;53959;53.626;11.410;2023-06-24T01:07:29;101726.41;;;15.88;78.02
5138;BME280;53959;53.626;11.410;2023-06-24T01:09:56;101730.97;;;15.84;77.74
5138;BME280;53959;53.626;11.410;2023-06-24T01:12:22;101730.28;;;15.77;77.83
5138;BME280;53959;53.626;11.410;2023-06-24T01:14:47;101725.78;;;15.78;77.73
5138;BME280;53959;53.626;11.410;2023-06-24T01:17:16;101726.50;;;15.85;77.39
5138;BME280;53959;53.626;11.410;2023-06-24T01:20:18;101737.28;;;15.82;77.58
5138;BME280;53959;53.626;11.410;2023-06-24T01:28:52;101736.56;;;15.76;76.32
5138;BME280;53959;53.626;11.410;2023-06-24T01:36:57;101744.03;;;15.64;75.69
5138;BME280;53959;53.626;11.410;2023-06-24T01:39:27;101741.38;;;15.65;76.08
5138;BME280;53959;53.626;11.410;2023-06-24T01:42:07;101760.13;;;15.64;76.29
5138;BME280;53959;53.626;11.410;2023-06-24T01:44:34;101749.13;;;15.74;75.66
5138;BME280;53959;53.626;11.410;2023-06-24T01:47:01;101743.97;;;15.68;75.37
5138;BME280;53959;53.626;11.410;2023-06-24T01:49:31;101746.94;;;15.58;75.10
5138;BME280;53959;53.626;11.410;2023-06-24T01:51:59;101741.59;;;15.56;75.91
5138;BME280;53959;53.626;11.410;2023-06-24T01:54:27;101741.50;;;15.59;75.49
5138;BME280;53959;53.626;11.410;2023-06-24T01:56:55;101736.59;;;15.44;76.04
5138;BME280;53959;53.626;11.410;2023-06-24T01:59:22;101747.81;;;15.57;75.68
5138;BME280;53959;53.626;11.410;2023-06-24T02:01:50;101747.16;;;15.50;75.94
5138;BME280;53959;53.626;11.410;2023-06-24T02:04:18;101747.41;;;15.41;76.03
5138;BME280;53959;53.626;11.410;2023-06-24T02:06:45;101743.78;;;15.42;76.20
5138;BME280;53959;53.626;11.410;2023-06-24T02:09:11;101738.44;;;15.42;75.95
5138;BME280;53959;53.626;11.410;2023-06-24T02:11:41;101735.97;;;15.36;76.01
5138;BME280;53959;53.626;11.410;2023-06-24T02:14:07;101736.31;;;15.53;75.74
5138;BME280;53959;53.626;11.410;2023-06-24T02:16:35;101735.09;;;15.34;75.94
5138;BME280;53959;53.626;11.410;2023-06-24T02:19:01;101731.34;;;15.41;76.02
5138;BME280;53959;53.626;11.410;2023-06-24T02:21:28;101737.88;;;15.30;76.48
5138;BME280;53959;53.626;11.410;2023-06-24T02:23:54;101741.25;;;15.37;76.62
5138;BME280;53959;53.626;11.410;2023-06-24T02:26:20;101735.81;;;15.40;76.30
5138;BME280;53959;53.626;11.410;2023-06-24T02:28:48;101740.97;;;15.15;77.17
5138;BME280;53959;53.626;11.410;2023-06-24T02:31:14;101735.81;;;15.09;77.59
5138;BME280;53959;53.626;11.410;2023-06-24T02:33:40;101744.72;;;15.08;77.92
5138;BME280;53959;53.626;11.410;2023-06-24T02:36:05;101747.31;;;15.13;77.96
5138;BME280;53959;53.626;11.410;2023-06-24T02:38:31;101750.09;;;15.08;77.78
5138;BME280;53959;53.626;11.410;2023-06-24T02:40:56;101751.41;;;14.93;78.38
5138;BME280;53959;53.626;11.410;2023-06-24T02:43:23;101757.78;;;14.88;78.68
5138;BME280;53959;53.626;11.410;2023-06-24T02:45:49;101760.31;;;14.94;78.90
5138;BME280;53959;53.626;11.410;2023-06-24T02:48:16;101754.03;;;14.95;78.68
5138;BME280;53959;53.626;11.410;2023-06-24T02:50:43;101757.94;;;14.81;79.06
5138;BME280;53959;53.626;11.410;2023-06-24T02:53:10;101762.53;;;14.76;79.54
5138;BME280;53959;53.626;11.410;2023-06-24T02:55:38;101764.47;;;14.70;79.96
5138;BME280;53959;53.626;11.410;2023-06-24T02:58:05;101767.94;;;14.73;80.02
5138;BME280;53959;53.626;11.410;2023-06-24T03:00:54;101764.19;;;14.80;80.00
5138;BME280;53959;53.626;11.410;2023-06-24T03:03:30;101774.16;;;14.74;80.07
5138;BME280;53959;53.626;11.410;2023-06-24T03:05:57;101762.97;;;14.60;80.56
5138;BME280;53959;53.626;11.410;2023-06-24T03:08:24;101766.59;;;14.57;80.99
5138;BME280;53959;53.626;11.410;2023-06-24T03:10:51;101775.38;;;14.62;80.99
5138;BME280;53959;53.626;11.410;2023-06-24T03:13:22;101769.38;;;14.52;81.21
5138;BME280;53959;53.626;11.410;2023-06-24T03:16:11;101780.00;;;14.55;81.23
5138;BME280;53959;53.626;11.410;2023-06-24T03:18:48;101785.22;;;14.60;81.40
5138;BME280;53959;53.626;11.410;2023-06-24T03:21:13;101791.72;;;14.48;81.52
5138;BME280;53959;53.626;11.410;2023-06-24T03:23:40;101790.78;;;14.51;81.11
5138;BME280;53959;53.626;11.410;2023-06-24T03:26:08;101785.25;;;14.58;81.28
5138;BME280;53959;53.626;11.410;2023-06-24T03:28:33;101779.72;;;14.66;81.44
5138;BME280;53959;53.626;11.410;2023-06-24T03:31:08;101787.97;;;14.57;81.19
5138;BME280;53959;53.626;11.410;2023-06-24T03:33:33;101785.16;;;14.63;81.07
5138;BME280;53959;53.626;11.410;2023-06-24T03:35:59;101790.72;;;14.54;81.12
5138;BME280;53959;53.626;11.410;2023-06-24T03:38:28;101789.91;;;14.50;81.35
5138;BME280;53959;53.626;11.410;2023-06-24T03:40:55;101788.91;;;14.56;81.04
5138;BME280;53959;53.626;11.410;2023-06-24T03:43:20;101794.88;;;14.67;80.81
5138;BME280;53959;53.626;11.410;2023-06-24T03:45:46;101795.06;;;14.58;81.03
5138;BME280;53959;53.626;11.410;2023-06-24T03:48:11;101792.13;;;14.69;80.96
5138;BME280;53959;53.626;11.410;2023-06-24T03:50:38;101795.63;;;14.72;80.73
5138;BME280;53959;53.626;11.410;2023-06-24T03:53:03;101785.84;;;14.71;80.95
5138;BME280;53959;53.626;11.410;2023-06-24T03:55:29;101791.94;;;14.76;80.81
5138;BME280;53959;53.626;11.410;2023-06-24T03:57:54;101792.81;;;14.78;80.58
5138;BME280;53959;53.626;11.410;2023-06-24T04:00:20;101785.47;;;14.85;80.65
5138;BME280;53959;53.626;11.410;2023-06-24T04:02:46;101790.00;;;14.83;80.35
5138;BME280;53959;53.626;11.410;2023-06-24T04:05:12;101793.22;;;14.96;80.59
5138;BME280;53959;53.626;11.410;2023-06-24T04:07:38;101784.00;;;14.73;80.88
5138;BME280;53959;53.626;11.410;2023-06-24T04:10:05;101788.19;;;14.84;80.69
5138;BME280;53959;53.626;11.410;2023-06-24T04:12:34;101787.06;;;14.92;80.28
5138;BME280;53959;53.626;11.410;2023-06-24T04:15:01;101784.53;;;14.88;80.68
5138;BME280;53959;53.626;11.410;2023-06-24T04:17:28;101787.00;;;14.95;80.45
5138;BME280;53959;53.626;11.410;2023-06-24T04:19:58;101784.19;;;15.00;80.16
5138;BME280;53959;53.626;11.410;2023-06-24T04:22:24;101786.78;;;15.04;79.97
5138;BME280;53959;53.626;11.410;2023-06-24T04:24:50;101782.44;;;14.99;80.39
5138;BME280;53959;53.626;11.410;2023-06-24T04:27:16;101784.06;;;15.06;79.94
5138;BME280;53959;53.626;11.410;2023-06-24T04:29:42;101781.16;;;15.14;79.66
5138;BME280;53959;53.626;11.410;2023-06-24T04:32:08;101783.72;;;15.18;79.44
5138;BME280;53959;53.626;11.410;2023-06-24T04:34:33;101791.50;;;15.27;79.26
5138;BME280;53959;53.626;11.410;2023-06-24T04:36:58;101795.84;;;15.32;79.17
5138;BME280;53959;53.626;11.410;2023-06-24T04:39:24;101793.19;;;15.32;79.21
5138;BME280;53959;53.626;11.410;2023-06-24T04:41:49;101791.09;;;15.41;78.94
5138;BME280;53959;53.626;11.410;2023-06-24T04:44:15;101803.47;;;15.45;78.34
5138;BME280;53959;53.626;11.410;2023-06-24T04:46:40;101802.75;;;15.40;78.59
5138;BME280;53959;53.626;11.410;2023-06-24T04:49:06;101801.56;;;15.50;78.20
5138;BME280;53959;53.626;11.410;2023-06-24T04:51:31;101801.50;;;15.53;78.10
5138;BME280;53959;53.626;11.410;2023-06-24T04:53:57;101806.56;;;15.63;77.88
5138;BME280;53959;53.626;11.410;2023-06-24T04:56:22;101808.97;;;15.73;77.91
5138;BME280;53959;53.626;11.410;2023-06-24T04:58:48;101816.09;;;15.74;77.29
5138;BME280;53959;53.626;11.410;2023-06-24T05:01:13;101824.09;;;15.76;77.59
5138;BME280;53959;53.626;11.410;2023-06-24T05:03:39;101826.63;;;15.81;77.26
5138;BME280;53959;53.626;11.410;2023-06-24T05:06:04;101825.63;;;15.83;77.61
5138;BME280;53959;53.626;11.410;2023-06-24T05:08:29;101828.09;;;15.91;77.24
5138;BME280;53959;53.626;11.410;2023-06-24T05:10:55;101826.31;;;15.91;76.97
5138;BME280;53959;53.626;11.410;2023-06-24T05:13:20;101829.09;;;15.88;77.36
5138;BME280;53959;53.626;11.410;2023-06-24T05:15:45;101826.09;;;15.99;76.58
5138;BME280;53959;53.626;11.410;2023-06-24T05:18:11;101830.28;;;16.08;76.56
5138;BME280;53959;53.626;11.410;2023-06-24T05:20:36;101831.56;;;15.94;75.96
5138;BME280;53959;53.626;11.410;2023-06-24T05:23:02;101823.03;;;16.11;75.85
5138;BME280;53959;53.626;11.410;2023-06-24T05:25:27;101829.22;;;16.13;75.80
5138;BME280;53959;53.626;11.410;2023-06-24T05:27:52;101817.84;;;16.05;75.92
5138;BME280;53959;53.626;11.410;2023-06-24T05:30:18;101822.84;;;16.17;75.59
5138;BME280;53959;53.626;11.410;2023-06-24T05:32:43;101828.66;;;16.32;74.90
5138;BME280;53959;53.626;11.410;2023-06-24T05:35:08;101824.06;;;16.35;75.06
5138;BME280;53959;53.626;11.410;2023-06-24T05:37:34;101829.72;;;16.54;74.19
5138;BME280;53959;53.626;11.410;2023-06-24T05:40:00;101835.19;;;16.51;74.10
5138;BME280;53959;53.626;11.410;2023-06-24T05:42:26;101836.88;;;16.55;74.08
5138;BME280;53959;53.626;11.410;2023-06-24T05:44:52;101828.84;;;16.54;73.87
5138;BME280;53959;53.626;11.410;2023-06-24T05:47:17;101831.34;;;16.60;73.70
5138;BME280;53959;53.626;11.410;2023-06-24T05:49:42;101831.09;;;16.67;73.58
5138;BME280;53959;53.626;11.410;2023-06-24T05:52:08;101835.34;;;16.46;73.72
5138;BME280;53959;53.626;11.410;2023-06-24T05:54:33;101830.75;;;16.50;73.73
5138;BME280;53959;53.626;11.410;2023-06-24T05:56:58;101835.19;;;16.51;73.92
5138;BME280;53959;53.626;11.410;2023-06-24T05:59:24;101835.00;;;16.57;73.55
5138;BME280;53959;53.626;11.410;2023-06-24T06:01:49;101843.09;;;16.84;73.03
5138;BME280;53959;53.626;11.410;2023-06-24T06:04:15;101830.94;;;17.00;72.36
5138;BME280;53959;53.626;11.410;2023-06-24T06:06:40;101837.94;;;17.31;71.49
5138;BME280;53959;53.626;11.410;2023-06-24T06:09:05;101845.47;;;17.19;71.43
5138;BME280;53959;53.626;11.410;2023-06-24T06:11:31;101835.47;;;16.98;71.61
5138;BME280;53959;53.626;11.410;2023-06-24T06:13:57;101834.94;;;17.13;71.74
5138;BME280;53959;53.626;11.410;2023-06-24T06:16:22;101837.94;;;17.31;71.29
5138;BME280;53959;53.626;11.410;2023-06-24T06:18:47;101835.41;;;17.51;70.24
5138;BME280;53959;53.626;11.410;2023-06-24T06:21:13;101844.50;;;17.47;70.31
5138;BME280;53959;53.626;11.410;2023-06-24T06:23:38;101840.50;;;17.59;70.38
5138;BME280;53959;53.626;11.410;2023-06-24T06:26:04;101840.00;;;17.72;69.85
5138;BME280;53959;53.626;11.410;2023-06-24T06:28:29;101839.06;;;17.99;69.33
5138;BME280;53959;53.626;11.410;2023-06-24T06:30:54;101843.47;;;18.23;68.26
5138;BME280;53959;53.626;11.410;2023-06-24T06:33:22;101841.31;;;18.33;67.69
5138;BME280;53959;53.626;11.410;2023-06-24T06:35:47;101846.81;;;18.30;66.85
5138;BME280;53959;53.626;11.410;2023-06-24T06:38:12;101849.19;;;18.37;67.07
5138;BME280;53959;53.626;11.410;2023-06-24T06:40:38;101849.63;;;18.03;68.03
5138;BME280;53959;53.626;11.410;2023-06-24T06:43:03;101855.63;;;18.33;67.37
5138;BME280;53959;53.626;11.410;2023-06-24T06:45:28;101861.50;;;18.21;67.57
5138;BME280;53959;53.626;11.410;2023-06-24T06:47:54;101853.41;;;17.98;67.55
5138;BME280;53959;53.626;11.410;2023-06-24T06:50:19;101853.00;;;18.08;67.28
5138;BME280;53959;53.626;11.410;2023-06-24T06:52:45;101852.66;;;17.94;67.33
5138;BME280;53959;53.626;11.410;2023-06-24T06:55:10;101850.31;;;18.32;65.98
5138;BME280;53959;53.626;11.410;2023-06-24T06:57:35;101850.72;;;18.66;65.04
5138;BME280;53959;53.626;11.410;2023-06-24T07:00:01;101855.75;;;18.76;64.18
5138;BME280;53959;53.626;11.410;2023-06-24T07:02:26;101856.97;;;18.67;64.88
5138;BME280;53959;53.626;11.410;2023-06-24T07:04:52;101857.31;;;18.81;64.81
5138;BME280;53959;53.626;11.410;2023-06-24T07:07:17;101854.19;;;18.92;64.96
5138;BME280;53959;53.626;11.410;2023-06-24T07:09:42;101859.19;;;19.22;63.84
5138;BME280;53959;53.626;11.410;2023-06-24T07:12:08;101856.53;;;19.42;62.75
5138;BME280;53959;53.626;11.410;2023-06-24T07:14:33;101852.88;;;19.43;62.37
5138;BME280;53959;53.626;11.410;2023-06-24T07:16:59;101850.84;;;19.48;61.93
5138;BME280;53959;53.626;11.410;2023-06-24T07:19:24;101861.84;;;19.84;61.75
5138;BME280;53959;53.626;11.410;2023-06-24T07:21:50;101863.09;;;19.55;61.71
5138;BME280;53959;53.626;11.410;2023-06-24T07:24:16;101862.19;;;19.56;61.20
5138;BME280;53959;53.626;11.410;2023-06-24T07:26:41;101870.53;;;19.91;60.68
5138;BME280;53959;53.626;11.410;2023-06-24T07:29:07;101881.78;;;19.80;60.43
5138;BME280;53959;53.626;11.410;2023-06-24T07:31:33;101880.94;;;19.80;61.31
5138;BME280;53959;53.626;11.410;2023-06-24T07:33:58;101875.88;;;20.11;59.67
5138;BME280;53959;53.626;11.410;2023-06-24T07:36:23;101871.44;;;20.10;59.86
5138;BME280;53959;53.626;11.410;2023-06-24T07:38:49;101867.78;;;20.68;59.05
5138;BME280;53959;53.626;11.410;2023-06-24T07:41:14;101870.34;;;20.71;58.60
5138;BME280;53959;53.626;11.410;2023-06-24T07:43:40;101870.78;;;20.98;58.74
5138;BME280;53959;53.626;11.410;2023-06-24T07:46:05;101865.38;;;20.81;57.65
5138;BME280;53959;53.626;11.410;2023-06-24T07:48:31;101877.28;;;20.94;57.57
5138;BME280;53959;53.626;11.410;2023-06-24T07:50:56;101869.09;;;20.78;58.70
5138;BME280;53959;53.626;11.410;2023-06-24T07:53:21;101876.91;;;20.84;57.57
5138;BME280;53959;53.626;11.410;2023-06-24T07:55:47;101877.53;;;20.90;57.28
5138;BME280;53959;53.626;11.410;2023-06-24T07:58:12;101867.78;;;20.68;57.34
5138;BME280;53959;53.626;11.410;2023-06-24T08:00:37;101875.06;;;20.85;56.40
5138;BME280;53959;53.626;11.410;2023-06-24T08:03:03;101877.19;;;21.15;54.24
5138;BME280;53959;53.626;11.410;2023-06-24T08:05:28;101874.44;;;21.33;53.50
5138;BME280;53959;53.626;11.410;2023-06-24T08:07:54;101864.81;;;21.96;52.67
5138;BME280;53959;53.626;11.410;2023-06-24T08:10:19;101865.25;;;22.37;51.30
5138;BME280;53959;53.626;11.410;2023-06-24T08:12:45;101860.78;;;22.84;50.43
5138;BME280;53959;53.626;11.410;2023-06-24T08:15:10;101872.94;;;22.92;49.23
5138;BME280;53959;53.626;11.410;2023-06-24T08:17:35;101864.84;;;23.22;48.39
5138;BME280;53959;53.626;11.410;2023-06-24T08:20:02;101877.81;;;23.17;47.33
5138;BME280;53959;53.626;11.410;2023-06-24T08:22:28;101879.44;;;23.50;46.27
5138;BME280;53959;53.626;11.410;2023-06-24T08:24:53;101874.06;;;22.88;48.86
5138;BME280;53959;53.626;11.410;2023-06-24T08:27:19;101876.13;;;23.45;47.52
5138;BME280;53959;53.626;11.410;2023-06-24T08:29:44;101871.97;;;24.12;46.17
5138;BME280;53959;53.626;11.410;2023-06-24T08:32:09;101876.78;;;22.88;48.83
5138;BME280;53959;53.626;11.410;2023-06-24T08:34:35;101879.41;;;23.80;47.50
5138;BME280;53959;53.626;11.410;2023-06-24T08:37:00;101878.91;;;27.27;39.60
5138;BME280;53959;53.626;11.410;2023-06-24T08:39:25;101883.88;;;27.69;38.16
5138;BME280;53959;53.626;11.410;2023-06-24T08:41:51;101885.69;;;28.92;35.37
5138;BME280;53959;53.626;11.410;2023-06-24T08:44:17;101884.34;;;26.43;40.33
5138;BME280;53959;53.626;11.410;2023-06-24T08:46:42;101880.84;;;28.52;36.61
5138;BME280;53959;53.626;11.410;2023-06-24T08:49:27;101879.44;;;28.35;36.67
5138;BME280;53959;53.626;11.410;2023-06-24T08:54:21;101881.75;;;29.70;34.28
5138;BME280;53959;53.626;11.410;2023-06-24T08:56:47;101880.72;;;29.29;34.74
5138;BME280;53959;53.626;11.410;2023-06-24T08:59:13;101872.38;;;27.76;35.89
5138;BME280;53959;53.626;11.410;2023-06-24T09:01:45;101880.06;;;27.36;36.56
5138;BME280;53959;53.626;11.410;2023-06-24T09:04:10;101880.84;;;28.52;36.12
5138;BME280;53959;53.626;11.410;2023-06-24T09:06:37;101870.63;;;29.29;34.51
5138;BME280;53959;53.626;11.410;2023-06-24T09:09:02;101883.75;;;30.60;31.93
5138;BME280;53959;53.626;11.410;2023-06-24T09:11:28;101876.72;;;30.27;32.71
5138;BME280;53959;53.626;11.410;2023-06-24T09:13:55;101874.84;;;28.02;35.02
5138;BME280;53959;53.626;11.410;2023-06-24T09:16:21;101874.25;;;30.23;31.96
5138;BME280;53959;53.626;11.410;2023-06-24T09:18:49;101873.25;;;29.52;33.48
5138;BME280;53959;53.626;11.410;2023-06-24T09:21:28;101877.53;;;30.58;31.71
5138;BME280;53959;53.626;11.410;2023-06-24T09:23:57;101871.78;;;28.84;34.26
5138;BME280;53959;53.626;11.410;2023-06-24T09:26:26;101871.44;;;29.20;33.32
5138;BME280;53959;53.626;11.410;2023-06-24T09:28:53;101868.28;;;31.18;31.49
5138;BME280;53959;53.626;11.410;2023-06-24T09:31:19;101870.56;;;29.41;34.26
5138;BME280;53959;53.626;11.410;2023-06-24T09:33:46;101871.56;;;30.83;32.01
5138;BME280;53959;53.626;11.410;2023-06-24T09:36:12;101867.53;;;30.78;31.62
5138;BME280;53959;53.626;11.410;2023-06-24T09:38:40;101861.72;;;28.52;34.35
5138;BME280;53959;53.626;11.410;2023-06-24T09:41:06;101871.09;;;27.69;36.08
5138;BME280;53959;53.626;11.410;2023-06-24T09:43:36;101868.91;;;28.96;34.70
5138;BME280;53959;53.626;11.410;2023-06-24T09:46:06;101871.00;;;29.78;33.08
5138;BME280;53959;53.626;11.410;2023-06-24T09:48:33;101869.09;;;29.99;33.17
5138;BME280;53959;53.626;11.410;2023-06-24T09:51:04;101872.75;;;30.50;31.72
5138;BME280;53959;53.626;11.410;2023-06-24T09:53:32;101870.50;;;29.94;32.97
5138;BME280;53959;53.626;11.410;2023-06-24T09:56:00;101877.38;;;31.38;30.95
5138;BME280;53959;53.626;11.410;2023-06-24T09:58:26;101872.44;;;29.82;32.21
5138;BME280;53959;53.626;11.410;2023-06-24T10:00:54;101872.88;;;29.03;34.26
5138;BME280;53959;53.626;11.410;2023-06-24T10:03:20;101871.00;;;30.09;32.61
5138;BME280;53959;53.626;11.410;2023-06-24T10:05:45;101864.63;;;29.68;33.58
5138;BME280;53959;53.626;11.410;2023-06-24T10:08:13;101866.19;;;28.96;34.58
5138;BME280;53959;53.626;11.410;2023-06-24T10:10:39;101860.09;;;28.93;34.98
5138;BME280;53959;53.626;11.410;2023-06-24T10:13:04;101864.03;;;29.11;35.26
5138;BME280;53959;53.626;11.410;2023-06-24T10:15:30;101861.72;;;29.69;33.79
5138;BME280;53959;53.626;11.410;2023-06-24T10:17:55;101862.44;;;29.50;34.41
5138;BME280;53959;53.626;11.410;2023-06-24T10:20:27;101859.66;;;29.83;33.32
5138;BME280;53959;53.626;11.410;2023-06-24T10:22:52;101849.66;;;28.87;35.01
5138;BME280;53959;53.626;11.410;2023-06-24T10:25:18;101856.28;;;29.37;33.77
5138;BME280;53959;53.626;11.410;2023-06-24T10:27:44;101851.00;;;28.60;34.24
5138;BME280;53959;53.626;11.410;2023-06-24T10:30:18;101849.09;;;30.09;32.56
5138;BME280;53959;53.626;11.410;2023-06-24T10:32:45;101847.28;;;30.19;32.51
5138;BME280;53959;53.626;11.410;2023-06-24T10:35:27;101852.38;;;29.72;33.04
5138;BME280;53959;53.626;11.410;2023-06-24T10:37:59;101853.00;;;30.56;31.93
5138;BME280;53959;53.626;11.410;2023-06-24T10:40:38;101844.59;;;29.14;33.88
5138;BME280;53959;53.626;11.410;2023-06-24T10:45:50;101839.69;;;29.71;32.81
5138;BME280;53959;53.626;11.410;2023-06-24T10:48:17;101843.53;;;29.89;33.10
5138;BME280;53959;53.626;11.410;2023-06-24T10:50:45;101829.03;;;28.28;33.92
5138;BME280;53959;53.626;11.410;2023-06-24T10:53:11;101833.88;;;28.90;33.02
5138;BME280;53959;53.626;11.410;2023-06-24T10:55:37;101827.16;;;29.68;31.60
5138;BME280;53959;53.626;11.410;2023-06-24T10:58:09;101834.53;;;29.36;32.98
5138;BME280;53959;53.626;11.410;2023-06-24T11:00:36;101830.81;;;28.18;34.43
5138;BME280;53959;53.626;11.410;2023-06-24T11:03:12;101835.66;;;27.80;35.36
5138;BME280;53959;53.626;11.410;2023-06-24T11:05:39;101834.13;;;29.82;32.78
5138;BME280;53959;53.626;11.410;2023-06-24T11:08:06;101834.75;;;29.44;33.04
5138;BME280;53959;53.626;11.410;2023-06-24T11:10:31;101824.53;;;28.61;34.74
5138;BME280;53959;53.626;11.410;2023-06-24T11:12:56;101823.59;;;29.15;33.76
5138;BME280;53959;53.626;11.410;2023-06-24T11:15:24;101816.22;;;29.26;33.22
5138;BME280;53959;53.626;11.410;2023-06-24T11:17:51;101813.09;;;29.41;33.16
5138;BME280;53959;53.626;11.410;2023-06-24T11:20:16;101808.91;;;29.37;33.23
5138;BME280;53959;53.626;11.410;2023-06-24T11:22:43;101802.38;;;29.28;33.64
5138;BME280;53959;53.626;11.410;2023-06-24T11:25:16;101795.38;;;28.27;35.26
5138;BME280;53959;53.626;11.410;2023-06-24T11:27:42;101799.41;;;26.85;37.28
5138;BME280;53959;53.626;11.410;2023-06-24T11:30:07;101799.63;;;28.75;35.66
5138;BME280;53959;53.626;11.410;2023-06-24T11:32:37;101794.84;;;28.88;34.51
5138;BME280;53959;53.626;11.410;2023-06-24T11:35:07;101801.34;;;28.55;35.02
5138;BME280;53959;53.626;11.410;2023-06-24T11:37:33;101801.22;;;28.45;34.74
5138;BME280;53959;53.626;11.410;2023-06-24T11:40:03;101795.00;;;28.43;35.19
5138;BME280;53959;53.626;11.410;2023-06-24T11:42:30;101800.63;;;29.06;34.63
5138;BME280;53959;53.626;11.410;2023-06-24T11:45:03;101801.75;;;28.71;35.25
5138;BME280;53959;53.626;11.410;2023-06-24T11:47:33;101802.47;;;28.19;35.82
5138;BME280;53959;53.626;11.410;2023-06-24T11:49:59;101811.78;;;28.27;35.63
5138;BME280;53959;53.626;11.410;2023-06-24T11:52:41;101808.66;;;28.32;36.36
5138;BME280;53959;53.626;11.410;2023-06-24T11:55:21;101801.88;;;28.15;36.21
5138;BME280;53959;53.626;11.410;2023-06-24T11:57:59;101803.13;;;27.89;36.89
5138;BME280;53959;53.626;11.410;2023-06-24T12:00:35;101798.31;;;28.58;35.46
5138;BME280;53959;53.626;11.410;2023-06-24T12:03:06;101792.78;;;28.26;36.69
5138;BME280;53959;53.626;11.410;2023-06-24T12:05:33;101794.22;;;28.64;35.93
5138;BME280;53959;53.626;11.410;2023-06-24T12:08:05;101793.41;;;28.41;36.70
5138;BME280;53959;53.626;11.410;2023-06-24T12:10:32;101787.41;;;28.47;37.31
5138;BME280;53959;53.626;11.410;2023-06-24T12:12:59;101790.69;;;28.18;36.72
5138;BME280;53959;53.626;11.410;2023-06-24T12:15:25;101784.38;;;27.73;38.69
5138;BME280;53959;53.626;11.410;2023-06-24T12:17:51;101793.63;;;27.36;38.55
5138;BME280;53959;53.626;11.410;2023-06-24T12:20:17;101790.19;;;28.13;37.39
5138;BME280;53959;53.626;11.410;2023-06-24T12:22:44;101793.22;;;27.99;37.82
5138;BME280;53959;53.626;11.410;2023-06-24T12:25:09;101791.56;;;27.74;38.61
5138;BME280;53959;53.626;11.410;2023-06-24T12:27:35;101788.13;;;27.14;39.49
5138;BME280;53959;53.626;11.410;2023-06-24T12:30:00;101789.06;;;28.38;38.03
5138;BME280;53959;53.626;11.410;2023-06-24T12:32:26;101785.69;;;27.33;39.16
5138;BME280;53959;53.626;11.410;2023-06-24T12:34:52;101782.78;;;28.04;38.29
5138;BME280;53959;53.626;11.410;2023-06-24T12:37:18;101788.63;;;27.77;38.85
5138;BME280;53959;53.626;11.410;2023-06-24T12:39:44;101789.44;;;27.66;39.21
5138;BME280;53959;53.626;11.410;2023-06-24T12:42:09;101778.66;;;27.53;38.09
5138;BME280;53959;53.626;11.410;2023-06-24T12:44:35;101787.47;;;27.57;39.14
5138;BME280;53959;53.626;11.410;2023-06-24T12:47:00;101778.13;;;26.67;40.49
5138;BME280;53959;53.626;11.410;2023-06-24T12:49:26;101774.28;;;27.28;40.23
5138;BME280;53959;53.626;11.410;2023-06-24T12:51:51;101771.47;;;28.08;38.48
5138;BME280;53959;53.626;11.410;2023-06-24T12:54:17;101764.22;;;26.82;39.70
5138;BME280;53959;53.626;11.410;2023-06-24T12:56:43;101764.16;;;27.98;38.98
5138;BME280;53959;53.626;11.410;2023-06-24T12:59:08;101759.91;;;27.49;38.99
5138;BME280;53959;53.626;11.410;2023-06-24T13:01:34;101756.03;;;27.18;39.88
5138;BME280;53959;53.626;11.410;2023-06-24T13:03:59;101756.25;;;26.55;40.40
5138;BME280;53959;53.626;11.410;2023-06-24T13:06:24;101757.31;;;27.58;39.45